createdAt,value
2018-01-10T00:00:34.473Z,1.90
2018-01-10T00:03:02.897Z,1.80
2018-01-10T00:05:32.053Z,1.90
2018-01-10T00:08:00.600Z,1.90
2018-01-10T00:10:29.728Z,1.90
2018-01-10T00:12:58.100Z,1.80
2018-01-10T00:15:26.844Z,1.90
2018-01-10T00:17:55.207Z,2.00
2018-01-10T00:20:23.562Z,2.00
2018-01-10T00:22:52.658Z,2.00
2018-01-10T00:25:21.027Z,2.00
2018-01-10T00:27:49.406Z,2.00
2018-01-10T00:30:18.025Z,2.00
2018-01-10T00:32:46.385Z,2.00
2018-01-10T00:35:14.749Z,2.00
2018-01-10T00:37:43.230Z,2.00
2018-01-10T00:40:11.760Z,2.00
2018-01-10T00:42:40.119Z,2.00
2018-01-10T00:45:08.507Z,2.00
2018-01-10T00:47:37.610Z,1.90
2018-01-10T00:50:06.001Z,1.90
2018-01-10T00:52:37.489Z,1.90
2018-01-10T00:55:05.842Z,1.90
2018-01-10T00:57:34.998Z,1.90
2018-01-10T01:00:03.469Z,1.90
2018-01-10T01:02:31.861Z,2.00
2018-01-10T01:05:00.626Z,2.00
2018-01-10T01:07:29.150Z,2.10
2018-01-10T01:09:57.543Z,2.00
2018-01-10T01:12:26.687Z,2.10
2018-01-10T01:14:55.334Z,2.00
2018-01-10T01:17:24.491Z,2.20
2018-01-10T01:19:52.877Z,2.10
2018-01-10T01:22:21.322Z,2.20
2018-01-10T01:24:50.081Z,2.40
2018-01-10T01:27:19.227Z,2.30
2018-01-10T01:29:47.678Z,2.30
2018-01-10T01:32:16.086Z,2.30
2018-01-10T01:34:44.464Z,2.40
2018-01-10T01:37:12.880Z,2.40
2018-01-10T01:39:41.276Z,2.40
2018-01-10T01:42:10.507Z,2.40
2018-01-10T01:44:39.033Z,2.40
2018-01-10T01:47:07.408Z,2.40
2018-01-10T01:49:35.820Z,2.40
2018-01-10T01:52:04.269Z,2.40
2018-01-10T01:54:32.683Z,2.40
2018-01-10T01:57:01.062Z,2.30
2018-01-10T01:59:29.700Z,2.40
2018-01-10T02:01:58.093Z,2.40
2018-01-10T02:04:26.485Z,2.40
2018-01-10T02:06:55.810Z,2.60
2018-01-10T02:09:24.224Z,2.60
2018-01-10T02:11:52.628Z,2.60
2018-01-10T02:14:21.096Z,2.60
2018-01-10T02:16:49.515Z,2.60
2018-01-10T02:19:18.005Z,2.70
2018-01-10T02:21:46.436Z,2.70
2018-01-10T02:24:14.829Z,2.70
2018-01-10T02:26:43.898Z,2.80
2018-01-10T02:29:12.633Z,2.70
2018-01-10T02:31:41.828Z,2.70
2018-01-10T02:34:10.230Z,2.70
2018-01-10T02:36:38.694Z,2.60
2018-01-10T02:39:07.079Z,2.70
2018-01-10T02:41:35.470Z,2.70
2018-01-10T02:44:04.088Z,2.70
2018-01-10T02:46:32.475Z,2.80
2018-01-10T02:49:00.971Z,2.80
2018-01-10T02:51:29.433Z,2.90
2018-01-10T02:53:58.591Z,2.90
2018-01-10T02:56:27.005Z,2.90
2018-01-10T02:58:55.450Z,2.90
2018-01-10T03:01:24.185Z,2.80
2018-01-10T03:03:52.557Z,2.90
2018-01-10T03:06:21.270Z,2.90
2018-01-10T03:08:50.758Z,2.90
2018-01-10T03:11:19.145Z,2.90
2018-01-10T03:13:47.744Z,3.00
2018-01-10T03:16:16.152Z,2.90
2018-01-10T03:18:44.574Z,2.90
2018-01-10T03:21:14.283Z,3.00
2018-01-10T03:23:42.679Z,3.00
2018-01-10T03:26:11.085Z,2.90
2018-01-10T03:28:39.922Z,2.90
2018-01-10T03:31:08.613Z,3.00
2018-01-10T03:33:37.107Z,3.00
2018-01-10T03:36:05.671Z,3.00
2018-01-10T03:38:34.282Z,3.10
2018-01-10T03:41:03.432Z,3.10
2018-01-10T03:43:32.060Z,3.00
2018-01-10T03:46:00.494Z,3.00
2018-01-10T03:48:28.974Z,3.00
2018-01-10T03:50:57.541Z,3.00
2018-01-10T03:53:25.936Z,3.00
2018-01-10T03:55:54.648Z,3.00
2018-01-10T03:58:23.261Z,2.90
2018-01-10T04:00:52.815Z,3.00
2018-01-10T04:03:21.447Z,3.00
2018-01-10T04:05:51.358Z,3.00
2018-01-10T04:08:19.759Z,3.00
2018-01-10T04:10:48.995Z,3.10
2018-01-10T04:13:17.616Z,3.10
2018-01-10T04:15:46.101Z,3.10
2018-01-10T04:18:15.264Z,3.00
2018-01-10T04:20:43.997Z,3.00
2018-01-10T04:23:13.198Z,3.20
2018-01-10T04:25:42.352Z,3.20
2018-01-10T04:28:10.960Z,3.20
2018-01-10T04:30:39.532Z,3.20
2018-01-10T04:33:07.923Z,3.20
2018-01-10T04:35:36.515Z,3.30
2018-01-10T04:38:05.663Z,3.30
2018-01-10T04:40:34.034Z,3.20
2018-01-10T04:43:02.477Z,3.30
2018-01-10T04:45:31.636Z,3.40
2018-01-10T04:48:00.083Z,3.30
2018-01-10T04:50:28.613Z,3.30
2018-01-10T04:52:56.981Z,3.30
2018-01-10T04:55:25.354Z,3.40
2018-01-10T04:57:53.870Z,3.40
2018-01-10T05:00:23.148Z,3.40
2018-01-10T05:02:51.538Z,3.40
2018-01-10T05:05:21.160Z,3.30
2018-01-10T05:07:50.313Z,3.40
2018-01-10T05:10:18.684Z,3.40
2018-01-10T05:12:48.823Z,3.40
2018-01-10T05:15:17.156Z,3.40
2018-01-10T05:17:45.488Z,3.40
2018-01-10T05:20:14.091Z,3.40
2018-01-10T05:22:43.235Z,3.50
2018-01-10T05:25:11.651Z,3.40
2018-01-10T05:27:40.164Z,3.50
2018-01-10T05:30:09.334Z,3.50
2018-01-10T05:32:38.281Z,3.50
2018-01-10T05:35:06.723Z,3.50
2018-01-10T05:37:35.901Z,3.60
2018-01-10T05:40:04.341Z,3.60
2018-01-10T05:42:32.749Z,3.40
2018-01-10T05:45:01.137Z,3.50
2018-01-10T05:47:29.536Z,3.50
2018-01-10T05:49:59.043Z,3.50
2018-01-10T05:52:28.231Z,3.60
2018-01-10T05:54:57.391Z,3.70
2018-01-10T05:57:26.262Z,3.70
2018-01-10T05:59:54.654Z,3.60
2018-01-10T06:02:23.069Z,3.70
2018-01-10T06:04:51.658Z,3.70
2018-01-10T06:07:20.809Z,3.80
2018-01-10T06:09:49.210Z,3.80
2018-01-10T06:12:17.795Z,3.80
2018-01-10T06:14:46.272Z,3.70
2018-01-10T06:17:14.740Z,3.80
2018-01-10T06:19:43.361Z,3.80
2018-01-10T06:22:11.763Z,3.90
2018-01-10T06:24:40.917Z,3.80
2018-01-10T06:27:09.532Z,3.90
2018-01-10T06:29:38.684Z,3.90
2018-01-10T06:32:07.106Z,3.90
2018-01-10T06:34:36.640Z,3.80
2018-01-10T06:37:05.043Z,3.80
2018-01-10T06:39:33.482Z,3.90
2018-01-10T06:42:03.476Z,3.80
2018-01-10T06:44:31.845Z,3.80
2018-01-10T06:47:00.286Z,3.80
2018-01-10T06:49:28.768Z,3.90
2018-01-10T06:51:57.357Z,4.00
2018-01-10T06:54:25.753Z,4.10
2018-01-10T06:56:54.177Z,4.10
2018-01-10T06:59:23.344Z,4.30
2018-01-10T07:01:51.716Z,4.20
2018-01-10T07:04:20.167Z,4.30
2018-01-10T07:06:48.560Z,4.40
2018-01-10T07:09:16.949Z,4.40
2018-01-10T07:11:45.579Z,4.40
2018-01-10T07:14:13.995Z,4.40
2018-01-10T07:16:42.582Z,4.40
2018-01-10T07:19:11.221Z,4.40
2018-01-10T07:21:40.459Z,4.60
2018-01-10T07:24:08.829Z,4.50
2018-01-10T07:26:37.242Z,4.50
2018-01-10T07:29:05.687Z,4.50
2018-01-10T07:31:34.099Z,4.50
2018-01-10T07:34:02.653Z,4.60
2018-01-10T07:36:31.362Z,4.60
2018-01-10T07:38:59.748Z,4.70
2018-01-10T07:41:28.566Z,4.70
2018-01-10T07:43:57.742Z,4.70
2018-01-10T07:46:26.143Z,4.70
2018-01-10T07:48:55.476Z,4.80
2018-01-10T07:51:23.870Z,4.80
2018-01-10T07:53:52.393Z,4.80
2018-01-10T07:56:20.996Z,4.90
2018-01-10T07:58:50.162Z,5.00
2018-01-10T08:01:18.547Z,5.00
2018-01-10T08:03:47.306Z,5.00
2018-01-10T08:06:15.718Z,5.10
2018-01-10T08:08:44.170Z,5.10
2018-01-10T08:11:12.606Z,5.10
2018-01-10T08:13:41.773Z,5.20
2018-01-10T08:16:10.170Z,5.10
2018-01-10T08:18:39.564Z,5.20
2018-01-10T08:21:08.033Z,5.20
2018-01-10T08:23:36.442Z,5.20
2018-01-10T08:26:05.636Z,5.30
2018-01-10T08:28:34.788Z,5.30
2018-01-10T08:31:03.224Z,5.30
2018-01-10T08:33:32.251Z,5.40
2018-01-10T08:36:00.686Z,5.40
2018-01-10T08:38:30.239Z,5.50
2018-01-10T08:40:59.166Z,5.50
2018-01-10T08:43:27.577Z,5.60
2018-01-10T08:45:55.983Z,5.60
2018-01-10T08:48:24.433Z,5.60
2018-01-10T08:50:52.869Z,5.70
2018-01-10T08:53:21.280Z,5.70
2018-01-10T08:55:50.817Z,5.70
2018-01-10T08:58:19.253Z,5.70
2018-01-10T09:00:47.645Z,5.70
2018-01-10T09:03:17.050Z,5.80
2018-01-10T09:05:46.214Z,5.80
2018-01-10T09:08:14.732Z,5.80
2018-01-10T09:10:44.112Z,5.90
2018-01-10T09:13:12.512Z,5.90
2018-01-10T09:15:41.698Z,5.90
2018-01-10T09:18:12.652Z,6.00
2018-01-10T09:20:41.392Z,6.00
2018-01-10T09:23:09.796Z,6.00
2018-01-10T09:25:38.489Z,6.10
2018-01-10T09:28:06.910Z,6.10
2018-01-10T09:30:35.323Z,6.20
2018-01-10T09:33:03.800Z,6.30
2018-01-10T09:35:32.256Z,6.30
2018-01-10T09:38:00.657Z,6.30
2018-01-10T09:40:29.892Z,6.40
2018-01-10T09:42:58.319Z,6.40
2018-01-10T09:45:26.737Z,6.50
2018-01-10T09:47:55.179Z,6.40
2018-01-10T09:50:23.571Z,6.50
2018-01-10T09:52:51.983Z,6.50
2018-01-10T09:55:21.272Z,6.60
2018-01-10T09:57:50.528Z,6.80
2018-01-10T10:00:18.910Z,6.70
2018-01-10T10:02:47.351Z,6.90
2018-01-10T10:05:16.617Z,8.20
2018-01-10T10:07:45.034Z,8.20
2018-01-10T10:10:14.274Z,8.20
2018-01-10T10:12:43.268Z,8.20
2018-01-10T10:15:11.686Z,7.80
2018-01-10T10:17:40.148Z,7.50
2018-01-10T10:20:08.568Z,7.40
2018-01-10T10:22:38.117Z,7.40
2018-01-10T10:25:06.885Z,7.40
2018-01-10T10:27:35.286Z,7.30
2018-01-10T10:30:03.786Z,7.10
2018-01-10T10:32:32.372Z,7.40
2018-01-10T10:35:02.375Z,7.50
2018-01-10T10:37:30.734Z,7.50
2018-01-10T10:39:59.273Z,7.50
2018-01-10T10:42:28.640Z,7.60
2018-01-10T10:44:57.156Z,7.50
2018-01-10T10:47:25.749Z,7.70
2018-01-10T10:49:54.892Z,7.70
2018-01-10T10:52:23.556Z,7.60
2018-01-10T10:54:52.020Z,7.70
2018-01-10T10:57:21.184Z,7.40
2018-01-10T10:59:49.652Z,7.40
2018-01-10T11:02:18.147Z,7.50
2018-01-10T11:04:46.536Z,7.60
2018-01-10T11:07:15.707Z,7.60
2018-01-10T11:09:44.124Z,7.60
2018-01-10T11:12:13.325Z,7.50
2018-01-10T11:14:42.500Z,7.60
2018-01-10T11:17:10.915Z,7.60
2018-01-10T11:19:39.282Z,7.60
2018-01-10T11:22:08.447Z,7.60
2018-01-10T11:24:36.954Z,7.50
2018-01-10T11:27:06.200Z,7.70
2018-01-10T11:29:34.598Z,7.60
2018-01-10T11:32:03.204Z,7.70
2018-01-10T11:34:32.357Z,7.80
2018-01-10T11:37:00.818Z,7.80
2018-01-10T11:39:29.369Z,7.80
2018-01-10T11:41:58.535Z,7.80
2018-01-10T11:44:27.425Z,7.70
2018-01-10T11:46:56.255Z,7.90
2018-01-10T11:49:25.425Z,8.00
2018-01-10T11:51:53.820Z,8.00
2018-01-10T11:54:23.113Z,8.00
2018-01-10T11:56:51.506Z,8.10
2018-01-10T11:59:20.780Z,8.20
2018-01-10T12:01:50.272Z,9.10
2018-01-10T12:04:18.678Z,9.00
2018-01-10T12:06:47.074Z,8.80
2018-01-10T12:09:17.277Z,8.80
2018-01-10T12:11:46.474Z,8.50
2018-01-10T12:14:15.886Z,8.70
2018-01-10T12:16:45.097Z,9.00
2018-01-10T12:19:14.353Z,9.40
2018-01-10T12:21:42.837Z,9.40
2018-01-10T12:24:11.332Z,9.40
2018-01-10T12:26:39.818Z,9.10
2018-01-10T12:29:08.562Z,9.00
2018-01-10T12:31:37.393Z,9.20
2018-01-10T12:34:05.881Z,8.90
2018-01-10T12:36:35.030Z,8.70
2018-01-10T12:39:03.637Z,8.60
2018-01-10T12:41:32.116Z,8.60
2018-01-10T12:44:00.524Z,8.50
2018-01-10T12:46:30.361Z,9.20
2018-01-10T12:48:58.769Z,9.10
2018-01-10T12:51:27.218Z,9.20
2018-01-10T12:53:55.962Z,9.30
2018-01-10T12:56:24.350Z,9.80
2018-01-10T12:58:52.746Z,10.30
2018-01-10T13:01:22.132Z,11.10
2018-01-10T13:03:50.708Z,11.00
2018-01-10T13:06:19.122Z,10.70
2018-01-10T13:08:48.365Z,9.70
2018-01-10T13:11:16.793Z,9.60
2018-01-10T13:13:45.935Z,9.10
2018-01-10T13:16:14.413Z,9.10
2018-01-10T13:18:42.808Z,9.00
2018-01-10T13:21:12.008Z,9.20
2018-01-10T13:23:40.696Z,9.10
2018-01-10T13:26:09.162Z,9.10
2018-01-10T13:28:37.909Z,9.20
2018-01-10T13:31:08.002Z,9.30
2018-01-10T13:33:36.394Z,9.20
2018-01-10T13:36:05.543Z,9.20
2018-01-10T13:38:34.162Z,9.20
2018-01-10T13:41:02.600Z,9.30
2018-01-10T13:43:30.977Z,9.50
2018-01-10T13:45:59.601Z,9.40
2018-01-10T13:48:28.505Z,9.40
2018-01-10T13:50:57.772Z,9.70
2018-01-10T13:53:26.999Z,10.10
2018-01-10T13:58:30.798Z,10.20
2018-01-10T14:00:59.211Z,10.70
2018-01-10T14:03:28.399Z,10.60
2018-01-10T14:05:57.690Z,10.50
2018-01-10T14:08:26.082Z,10.50
2018-01-10T14:10:54.459Z,10.50
2018-01-10T14:13:23.688Z,10.30
2018-01-10T14:15:52.155Z,10.30
2018-01-10T14:18:20.569Z,10.30
2018-01-10T14:20:49.206Z,10.30
2018-01-10T14:23:18.505Z,10.10
2018-01-10T14:25:46.907Z,10.20
2018-01-10T14:28:15.774Z,9.90
2018-01-10T14:30:44.970Z,9.90
2018-01-10T14:33:14.133Z,9.90
2018-01-10T14:35:42.632Z,9.90
2018-01-10T14:38:11.031Z,9.80
2018-01-10T14:40:40.606Z,9.70
2018-01-10T14:43:10.078Z,9.50
2018-01-10T14:45:38.489Z,9.60
2018-01-10T14:48:06.955Z,9.60
2018-01-10T14:50:36.122Z,9.40
2018-01-10T14:53:04.579Z,9.20
2018-01-10T14:55:33.901Z,8.90
2018-01-10T14:58:02.456Z,8.90
2018-01-10T15:00:30.828Z,8.80
2018-01-10T15:02:59.207Z,8.90
2018-01-10T15:05:27.900Z,8.70
2018-01-10T15:07:57.060Z,8.50
2018-01-10T15:10:25.469Z,8.50
2018-01-10T15:12:53.976Z,8.30
2018-01-10T15:15:23.169Z,8.20
2018-01-10T15:17:52.386Z,8.00
2018-01-10T15:20:20.852Z,8.00
2018-01-10T15:22:49.302Z,8.00
2018-01-10T15:25:17.781Z,8.00
2018-01-10T15:27:46.757Z,7.90
2018-01-10T15:30:16.098Z,7.80
2018-01-10T15:32:45.281Z,7.60
2018-01-10T15:35:13.823Z,7.60
2018-01-10T15:37:42.221Z,7.50
2018-01-10T15:40:10.608Z,7.50
2018-01-10T15:42:39.535Z,7.30
2018-01-10T15:45:08.201Z,7.30
2018-01-10T15:47:38.805Z,7.20
2018-01-10T15:50:07.715Z,7.10
2018-01-10T15:52:36.395Z,7.10
2018-01-10T15:55:04.980Z,7.00
2018-01-10T15:57:33.485Z,6.90
2018-01-10T16:00:02.653Z,6.90
2018-01-10T16:02:31.063Z,6.80
2018-01-10T16:04:59.827Z,6.80
2018-01-10T16:07:28.274Z,6.80
2018-01-10T16:09:57.924Z,6.70
2018-01-10T16:12:27.272Z,6.40
2018-01-10T16:14:55.728Z,6.40
2018-01-10T16:17:24.143Z,6.30
2018-01-10T16:19:52.994Z,6.20
2018-01-10T16:22:22.116Z,6.30
2018-01-10T16:24:50.589Z,6.40
2018-01-10T16:27:19.050Z,6.30
2018-01-10T16:29:48.234Z,6.10
2018-01-10T16:32:17.405Z,6.10
2018-01-10T16:34:45.987Z,6.10
2018-01-10T16:37:14.447Z,6.00
2018-01-10T16:39:42.854Z,6.00
2018-01-10T16:42:11.289Z,6.00
2018-01-10T16:44:39.905Z,6.00
2018-01-10T16:47:08.394Z,5.80
2018-01-10T16:49:36.869Z,5.70
2018-01-10T16:52:05.303Z,5.60
2018-01-10T16:54:34.057Z,5.50
2018-01-10T16:57:02.576Z,5.30
2018-01-10T16:59:31.780Z,5.30
2018-01-10T17:02:00.187Z,5.30
2018-01-10T17:04:29.013Z,5.20
2018-01-10T17:06:58.197Z,5.10
2018-01-10T17:09:26.638Z,5.10
2018-01-10T17:11:55.211Z,5.00
2018-01-10T17:14:23.592Z,5.00
2018-01-10T17:16:51.993Z,4.90
2018-01-10T17:19:20.420Z,4.90
2018-01-10T17:21:49.629Z,4.90
2018-01-10T17:24:18.028Z,4.90
2018-01-10T17:26:46.681Z,4.90
2018-01-10T17:29:15.826Z,4.80
2018-01-10T17:31:44.231Z,4.80
2018-01-10T17:34:12.912Z,4.90
2018-01-10T17:36:41.295Z,4.80
2018-01-10T17:39:09.693Z,4.90
2018-01-10T17:41:38.996Z,4.80
2018-01-10T17:44:08.138Z,4.80
2018-01-10T17:46:36.555Z,4.80
2018-01-10T17:49:04.983Z,4.90
2018-01-10T17:51:33.400Z,4.90
2018-01-10T17:54:01.815Z,5.00
2018-01-10T17:56:30.702Z,5.00
2018-01-10T17:58:59.908Z,4.90
2018-01-10T18:01:29.085Z,4.90
2018-01-10T18:03:57.629Z,4.90
2018-01-10T18:06:26.797Z,5.00
2018-01-10T18:08:55.225Z,5.10
2018-01-10T18:11:23.764Z,4.90
2018-01-10T18:13:52.145Z,5.00
2018-01-10T18:16:20.552Z,5.00
2018-01-10T18:18:49.009Z,4.90
2018-01-10T18:21:17.407Z,4.80
2018-01-10T18:23:45.864Z,4.90
2018-01-10T18:26:14.282Z,4.90
2018-01-10T18:28:42.660Z,4.90
2018-01-10T18:31:11.037Z,5.00
2018-01-10T18:33:39.959Z,5.00
2018-01-10T18:36:08.363Z,5.10
2018-01-10T18:38:36.748Z,4.90
2018-01-10T18:41:05.238Z,5.00
2018-01-10T18:43:33.624Z,5.00
2018-01-10T18:46:02.008Z,5.00
2018-01-10T18:48:30.641Z,5.00
2018-01-10T18:50:59.023Z,5.10
2018-01-10T18:53:28.175Z,5.10
2018-01-10T18:55:56.690Z,5.00
2018-01-10T18:58:25.458Z,5.10
2018-01-10T19:00:53.870Z,5.10
2018-01-10T19:03:23.267Z,5.20
2018-01-10T19:05:51.673Z,5.10
2018-01-10T19:08:20.073Z,5.10
2018-01-10T19:13:23.871Z,5.00
2018-01-10T19:15:52.328Z,5.10
2018-01-10T19:18:20.717Z,5.10
2018-01-10T19:20:49.856Z,5.00
2018-01-10T19:23:18.444Z,5.10
2018-01-10T19:25:46.862Z,5.10
2018-01-10T19:28:15.258Z,5.10
2018-01-10T19:30:44.442Z,5.20
2018-01-10T19:33:12.848Z,5.20
2018-01-10T19:35:41.227Z,5.30
2018-01-10T19:38:09.921Z,5.20
2018-01-10T19:40:38.294Z,5.20
2018-01-10T19:43:06.692Z,5.20
2018-01-10T19:45:35.226Z,5.10
2018-01-10T19:48:03.623Z,5.20
2018-01-10T19:50:32.815Z,5.20
2018-01-10T19:53:02.102Z,5.20
2018-01-10T19:55:31.272Z,5.20
2018-01-10T19:57:59.734Z,5.10
2018-01-10T20:00:28.615Z,5.20
2018-01-10T20:02:57.012Z,5.20
2018-01-10T20:05:25.429Z,5.30
2018-01-10T20:07:53.988Z,5.20
2018-01-10T20:10:22.376Z,5.20
2018-01-10T20:12:50.755Z,5.20
2018-01-10T20:15:19.313Z,5.20
2018-01-10T20:17:47.715Z,5.20
2018-01-10T20:20:16.127Z,5.30
2018-01-10T20:22:44.902Z,5.20
2018-01-10T20:25:14.048Z,5.20
2018-01-10T20:27:42.737Z,5.20
2018-01-10T20:30:11.318Z,5.30
2018-01-10T20:32:39.722Z,5.20
2018-01-10T20:35:08.121Z,5.30
2018-01-10T20:37:36.709Z,5.30
2018-01-10T20:40:05.921Z,5.30
2018-01-10T20:42:35.064Z,5.20
2018-01-10T20:45:03.543Z,5.20
2018-01-10T20:47:31.965Z,5.30
2018-01-10T20:50:01.100Z,5.20
2018-01-10T20:52:29.854Z,5.30
2018-01-10T20:54:59.004Z,5.20
2018-01-10T20:57:27.421Z,5.20
2018-01-10T20:59:56.823Z,5.30
2018-01-10T21:02:26.345Z,5.30
2018-01-10T21:04:55.523Z,5.20
2018-01-10T21:07:24.731Z,5.00
2018-01-10T21:09:53.153Z,5.00
2018-01-10T21:12:21.590Z,5.00
2018-01-10T21:14:50.950Z,4.90
2018-01-10T21:17:19.397Z,4.90
2018-01-10T21:19:47.810Z,5.00
2018-01-10T21:22:16.291Z,5.00
2018-01-10T21:24:44.666Z,4.90
2018-01-10T21:27:13.065Z,4.80
2018-01-10T21:29:41.645Z,4.80
2018-01-10T21:32:10.036Z,4.90
2018-01-10T21:34:38.426Z,4.90
2018-01-10T21:37:06.841Z,5.00
2018-01-10T21:39:35.248Z,5.10
2018-01-10T21:42:03.840Z,5.10
2018-01-10T21:44:32.507Z,4.90
2018-01-10T21:47:00.977Z,4.90
2018-01-10T21:49:29.358Z,4.80
2018-01-10T21:51:57.927Z,4.80
2018-01-10T21:54:26.347Z,4.80
2018-01-10T21:56:54.820Z,4.80
2018-01-10T21:59:23.415Z,4.80
2018-01-10T22:01:51.790Z,5.10
2018-01-10T22:04:20.764Z,5.20
2018-01-10T22:06:49.456Z,5.10
2018-01-10T22:09:17.861Z,5.20
2018-01-10T22:11:46.342Z,5.10
2018-01-10T22:14:15.739Z,5.10
2018-01-10T22:16:44.128Z,5.10
2018-01-10T22:19:12.546Z,5.10
2018-01-10T22:21:41.205Z,5.10
2018-01-10T22:24:10.411Z,5.20
2018-01-10T22:26:39.561Z,5.20
2018-01-10T22:29:08.440Z,5.10
2018-01-10T22:31:37.727Z,5.20
2018-01-10T22:34:06.292Z,5.10
2018-01-10T22:36:34.708Z,5.20
2018-01-10T22:39:03.140Z,5.30
2018-01-10T22:41:32.280Z,5.10
2018-01-10T22:44:00.920Z,5.10
2018-01-10T22:46:30.063Z,5.20
2018-01-10T22:48:58.447Z,5.20
2018-01-10T22:51:26.907Z,5.10
2018-01-10T22:53:55.308Z,5.10
2018-01-10T22:56:24.720Z,4.90
2018-01-10T22:58:53.520Z,4.90
2018-01-10T23:01:21.910Z,4.90
2018-01-10T23:03:50.290Z,4.90
2018-01-10T23:06:20.099Z,5.00
2018-01-10T23:08:48.502Z,5.00
2018-01-10T23:11:17.654Z,5.30
2018-01-10T23:13:46.903Z,5.20
2018-01-10T23:16:15.296Z,5.30
2018-01-10T23:18:43.696Z,5.30
2018-01-10T23:21:12.404Z,5.30
2018-01-10T23:23:40.763Z,5.30
2018-01-10T23:26:09.135Z,5.30
2018-01-10T23:28:37.756Z,5.30
2018-01-10T23:31:06.143Z,5.30
2018-01-10T23:33:34.555Z,5.40
2018-01-10T23:36:03.261Z,5.50
2018-01-10T23:38:31.639Z,5.50
2018-01-10T23:41:00.012Z,5.50
2018-01-10T23:43:28.438Z,5.60
2018-01-10T23:45:57.090Z,5.60
2018-01-10T23:48:26.234Z,5.70
2018-01-10T23:50:55.419Z,5.70
2018-01-10T23:53:23.793Z,5.70
2018-01-10T23:55:52.187Z,5.60
2018-01-10T23:58:20.962Z,5.60
